Decoded Metar for LELC (SAN JAVIER in SPAIN) (IATA:MJV) | Meteo·Mobile Aviation Weather
aviador You're here:

LELC Decoded Metar

SAN JAVIER in SPAIN
Report Time2019-10-22 14:00:00
UTC Time2019-10-22 14:28:06
Flight Rules vfr VFR
Wind230° at 07 kt
W.Decomp.*RWY 23: 7.0 kt HW 0.1 kt RCW
Visibility9999 m
Phenomena:N/A
Clouds:Few 008 Hf
CeilingNone
Temp14°C (ISA -1)
Dew Point14°C (100% RH)
AAT12.7°C
QNH1009 hPa
Density Alt243 ft
Elevation10 ft
Report Wrong Elevation
Raw Report
METAR LELC 221400Z 23007KT 9999 FEW008 14/14 Q1009 NOSIG=

Extra information for LELC:More info

Metar Taf Metar & Taf Last 4 Metars F.Rules Stats Wind Profile Meteogram Temp Stats Airport Information Weather charts Add Link Nearby VenuesMetar ALERT Operation Metar Decoded Social comments